createdAt,value
2023-01-07T00:01:50.283Z,40.70
2023-01-07T00:04:17.147Z,43.85
2023-01-07T00:06:47.456Z,44.40
2023-01-07T00:09:18.648Z,44.45
2023-01-07T00:11:45.913Z,45.28
2023-01-07T00:14:14.481Z,49.78
2023-01-07T00:16:41.642Z,48.15
2023-01-07T00:19:13.072Z,51.65
2023-01-07T00:21:40.164Z,48.13
2023-01-07T00:24:07.980Z,48.58
2023-01-07T00:26:37.005Z,46.75
2023-01-07T00:29:05.452Z,47.50
2023-01-07T00:31:37.903Z,50.75
2023-01-07T00:34:23.761Z,46.00
2023-01-07T00:36:50.640Z,50.03
2023-01-07T00:39:20.735Z,48.28
2023-01-07T00:42:07.542Z,47.38
2023-01-07T00:44:35.455Z,45.42
2023-01-07T00:47:02.399Z,46.88
2023-01-07T00:49:48.483Z,52.63
2023-01-07T00:52:15.321Z,56.20
2023-01-07T00:54:42.173Z,55.60
2023-01-07T00:57:13.285Z,53.22
2023-01-07T00:59:40.067Z,51.45
2023-01-07T01:02:07.010Z,50.00
2023-01-07T01:04:34.059Z,50.30
2023-01-07T01:07:00.946Z,45.30
2023-01-07T01:09:28.040Z,47.60
2023-01-07T01:11:54.966Z,46.17
2023-01-07T01:14:21.931Z,43.42
2023-01-07T01:16:48.777Z,47.50
2023-01-07T01:19:34.436Z,44.67
2023-01-07T01:22:01.320Z,36.13
2023-01-07T01:24:28.208Z,35.13
2023-01-07T01:26:55.119Z,38.28
2023-01-07T01:29:22.051Z,40.35
2023-01-07T01:31:48.943Z,38.33
2023-01-07T01:34:15.867Z,32.55
2023-01-07T01:36:42.678Z,34.15
2023-01-07T01:39:09.460Z,34.03
2023-01-07T01:41:36.684Z,34.95
2023-01-07T01:44:46.361Z,35.83
2023-01-07T01:47:21.053Z,37.28
2023-01-07T01:50:18.433Z,40.38
2023-01-07T01:53:09.630Z,41.13
2023-01-07T01:55:39.255Z,41.55
2023-01-07T01:58:22.078Z,42.58
2023-01-07T02:03:27.508Z,40.92
2023-01-07T02:05:54.528Z,37.83
2023-01-07T02:08:23.440Z,38.80
2023-01-07T02:11:17.661Z,39.00
2023-01-07T02:14:10.184Z,39.80
2023-01-07T02:16:50.480Z,40.17
2023-01-07T02:19:43.247Z,38.90
2023-01-07T02:22:16.147Z,36.40
2023-01-07T02:25:20.110Z,33.30
2023-01-07T02:27:46.968Z,32.33
2023-01-07T02:30:45.648Z,33.08
2023-01-07T02:33:28.285Z,31.95
2023-01-07T02:36:04.138Z,29.23
2023-01-07T02:38:51.208Z,29.27
2023-01-07T02:44:04.196Z,27.35
2023-01-07T02:46:40.221Z,26.00
2023-01-07T02:49:14.355Z,26.40
2023-01-07T02:51:45.237Z,25.38
2023-01-07T02:54:21.593Z,25.45
2023-01-07T02:57:41.879Z,26.15
2023-01-07T03:00:26.863Z,27.15
2023-01-07T03:03:18.682Z,27.17
2023-01-07T03:05:51.495Z,29.63
2023-01-07T03:08:49.411Z,29.40
2023-01-07T03:11:17.655Z,27.27
2023-01-07T03:13:50.359Z,27.80
2023-01-07T03:16:34.783Z,26.15
2023-01-07T03:19:10.023Z,27.77
2023-01-07T03:21:38.237Z,30.55
2023-01-07T03:24:07.943Z,31.40
2023-01-07T03:26:43.095Z,32.35
2023-01-07T03:29:13.639Z,31.17
2023-01-07T03:31:46.927Z,30.45
2023-01-07T03:34:17.126Z,30.00
2023-01-07T03:36:53.248Z,31.90
2023-01-07T03:39:24.639Z,31.75
2023-01-07T03:42:10.352Z,31.25
2023-01-07T03:44:37.745Z,30.45
2023-01-07T03:47:23.885Z,30.60
2023-01-07T03:49:50.710Z,31.27
2023-01-07T03:52:17.672Z,31.92
2023-01-07T03:54:44.555Z,30.15
2023-01-07T03:57:11.328Z,28.83
2023-01-07T03:59:38.157Z,28.65
2023-01-07T04:02:05.134Z,27.38
2023-01-07T04:04:32.580Z,27.40
2023-01-07T04:06:59.532Z,27.83
2023-01-07T04:09:26.559Z,26.33
2023-01-07T04:11:53.693Z,25.33
2023-01-07T04:14:38.974Z,24.67
2023-01-07T04:17:06.028Z,25.50
2023-01-07T04:19:33.460Z,24.20
2023-01-07T04:22:00.406Z,25.58
2023-01-07T04:24:27.359Z,27.38
2023-01-07T04:26:54.155Z,29.02
2023-01-07T04:29:21.173Z,29.17
2023-01-07T04:31:48.016Z,27.98
2023-01-07T04:34:14.827Z,26.33
2023-01-07T04:36:41.737Z,27.23
2023-01-07T04:39:08.605Z,26.58
2023-01-07T04:41:35.405Z,27.02
2023-01-07T04:44:02.315Z,25.50
2023-01-07T04:46:29.215Z,25.25
2023-01-07T04:48:56.344Z,25.27
2023-01-07T04:51:23.200Z,24.55
2023-01-07T04:53:49.998Z,25.20
2023-01-07T04:56:17.066Z,25.60
2023-01-07T04:58:44.137Z,23.38
2023-01-07T05:01:11.617Z,23.60
2023-01-07T05:03:38.797Z,22.35
2023-01-07T05:06:05.855Z,23.52
2023-01-07T05:08:32.928Z,21.55
2023-01-07T05:11:00.186Z,21.10
2023-01-07T05:13:27.089Z,20.60
2023-01-07T05:15:53.960Z,21.90
2023-01-07T05:18:20.816Z,23.23
2023-01-07T05:20:50.629Z,25.80
2023-01-07T05:23:17.416Z,25.20
2023-01-07T05:25:44.581Z,24.05
2023-01-07T05:28:12.385Z,23.40
2023-01-07T05:30:39.694Z,23.20
2023-01-07T05:33:07.737Z,23.90
2023-01-07T05:35:35.988Z,22.33
2023-01-07T05:38:02.844Z,25.20
2023-01-07T05:40:29.821Z,25.35
2023-01-07T05:42:56.982Z,24.80
2023-01-07T05:45:23.843Z,22.95
2023-01-07T05:47:50.780Z,23.63
2023-01-07T05:50:17.797Z,24.92
2023-01-07T05:52:44.607Z,21.95
2023-01-07T05:55:12.476Z,23.55
2023-01-07T05:57:39.386Z,24.17
2023-01-07T06:00:06.937Z,24.45
2023-01-07T06:02:33.871Z,22.85
2023-01-07T06:05:00.818Z,23.92
2023-01-07T06:07:30.399Z,25.55
2023-01-07T06:09:57.227Z,23.70
2023-01-07T06:12:24.198Z,24.35
2023-01-07T06:14:51.018Z,24.95
2023-01-07T06:17:18.037Z,24.73
2023-01-07T06:19:44.953Z,25.17
2023-01-07T06:22:11.988Z,25.55
2023-01-07T06:24:40.277Z,25.88
2023-01-07T06:27:07.215Z,25.30
2023-01-07T06:29:34.055Z,26.23
2023-01-07T06:32:00.918Z,25.80
2023-01-07T06:34:27.775Z,25.50
2023-01-07T06:36:54.526Z,25.50
2023-01-07T06:39:21.323Z,25.75
2023-01-07T06:41:48.188Z,24.35
2023-01-07T06:44:15.036Z,25.25
2023-01-07T06:46:41.919Z,25.17
2023-01-07T06:49:09.199Z,25.30
2023-01-07T06:51:36.071Z,27.65
2023-01-07T06:54:03.387Z,24.23
2023-01-07T06:56:30.308Z,28.50
2023-01-07T06:58:57.105Z,25.48
2023-01-07T07:01:24.185Z,26.27
2023-01-07T07:03:51.109Z,24.20
2023-01-07T07:06:17.912Z,24.33
2023-01-07T07:09:03.018Z,24.02
2023-01-07T07:11:30.026Z,23.75
2023-01-07T07:13:57.038Z,22.30
2023-01-07T07:16:24.361Z,20.75
2023-01-07T07:18:51.426Z,21.55
2023-01-07T07:21:18.216Z,21.05
2023-01-07T07:23:45.465Z,22.02
2023-01-07T07:26:12.338Z,20.63
2023-01-07T07:28:39.598Z,21.42
2023-01-07T07:31:06.541Z,22.23
2023-01-07T07:33:33.381Z,23.35
2023-01-07T07:36:00.140Z,20.48
2023-01-07T07:38:27.017Z,20.13
2023-01-07T07:40:53.844Z,20.58
2023-01-07T07:43:20.779Z,19.63
2023-01-07T07:45:47.673Z,19.50
2023-01-07T07:48:15.850Z,23.85
2023-01-07T07:50:42.754Z,20.73
2023-01-07T07:53:10.677Z,18.15
2023-01-07T07:55:39.054Z,20.35
2023-01-07T07:58:06.603Z,19.50
2023-01-07T08:00:33.657Z,20.25
2023-01-07T08:03:01.506Z,20.30
2023-01-07T08:05:29.060Z,21.15
2023-01-07T08:07:56.419Z,21.13
2023-01-07T08:10:23.246Z,20.30
2023-01-07T08:12:50.847Z,19.40
2023-01-07T08:15:17.873Z,18.65
2023-01-07T08:17:44.899Z,19.15
2023-01-07T08:20:12.335Z,20.20
2023-01-07T08:22:39.564Z,18.25
2023-01-07T08:25:06.859Z,18.40
2023-01-07T08:27:33.709Z,18.95
2023-01-07T08:30:00.682Z,20.40
2023-01-07T08:32:27.609Z,19.38
2023-01-07T08:34:54.519Z,20.60
2023-01-07T08:37:21.462Z,23.48
2023-01-07T08:39:48.277Z,21.42
2023-01-07T08:42:15.068Z,21.80
2023-01-07T08:44:42.018Z,21.38
2023-01-07T08:47:08.881Z,22.15
2023-01-07T08:49:35.657Z,21.73
2023-01-07T08:52:02.593Z,38.10
2023-01-07T08:54:29.377Z,24.27
2023-01-07T08:56:56.248Z,21.77
2023-01-07T08:59:23.178Z,19.83
2023-01-07T09:01:50.216Z,19.75
2023-01-07T09:04:17.200Z,20.42
2023-01-07T09:06:44.077Z,20.55
2023-01-07T09:09:12.076Z,21.17
2023-01-07T09:11:38.925Z,19.83
2023-01-07T09:14:05.998Z,17.70
2023-01-07T09:16:32.901Z,17.23
2023-01-07T09:18:59.885Z,17.65
2023-01-07T09:21:26.881Z,18.85
2023-01-07T09:23:53.670Z,21.48
2023-01-07T09:26:20.796Z,17.88
2023-01-07T09:28:47.707Z,17.33
2023-01-07T09:31:14.548Z,17.65
2023-01-07T09:33:41.578Z,16.38
2023-01-07T09:36:08.836Z,16.38
2023-01-07T09:38:35.679Z,16.05
2023-01-07T09:41:02.778Z,14.20
2023-01-07T09:44:01.183Z,14.32
2023-01-07T09:46:30.992Z,13.48
2023-01-07T09:49:02.991Z,14.05
2023-01-07T09:51:40.195Z,13.60
2023-01-07T09:54:29.093Z,13.07
2023-01-07T09:56:56.075Z,15.60
2023-01-07T09:59:22.902Z,16.60
2023-01-07T10:02:18.719Z,22.55
2023-01-07T10:05:33.457Z,66.25
2023-01-07T10:08:31.374Z,27.00
2023-01-07T10:11:08.134Z,13.63
2023-01-07T10:14:05.835Z,14.63
2023-01-07T10:16:48.816Z,27.42
2023-01-07T10:19:23.807Z,24.48
2023-01-07T10:22:03.139Z,17.40
2023-01-07T10:24:39.375Z,40.22
2023-01-07T10:27:15.449Z,34.60
2023-01-07T10:29:46.754Z,16.45
2023-01-07T10:32:18.248Z,15.35
2023-01-07T10:34:51.981Z,19.52
2023-01-07T10:37:33.884Z,14.27
2023-01-07T10:40:07.919Z,14.00
2023-01-07T10:43:16.664Z,13.60
2023-01-07T10:46:04.539Z,24.33
2023-01-07T10:48:43.332Z,14.77
2023-01-07T10:51:19.155Z,12.85
2023-01-07T10:54:11.094Z,13.83
2023-01-07T10:56:40.873Z,14.45
2023-01-07T10:59:15.536Z,15.70
2023-01-07T11:02:03.489Z,14.43
2023-01-07T11:04:30.507Z,16.58
2023-01-07T11:07:04.545Z,16.58
2023-01-07T11:09:35.625Z,14.07
2023-01-07T11:12:16.288Z,16.92
2023-01-07T11:14:43.858Z,15.48
2023-01-07T11:17:37.351Z,15.48
2023-01-07T11:20:05.690Z,15.82
2023-01-07T11:22:51.279Z,16.75
2023-01-07T11:25:29.056Z,14.73
2023-01-07T11:28:16.469Z,13.52
2023-01-07T11:30:44.016Z,12.10
2023-01-07T11:33:22.267Z,14.00
2023-01-07T11:35:54.875Z,12.52
2023-01-07T11:38:31.424Z,12.40
2023-01-07T11:43:35.147Z,13.68
2023-01-07T11:46:20.225Z,23.00
2023-01-07T11:49:01.441Z,17.08
2023-01-07T11:51:43.038Z,16.73
2023-01-07T11:54:21.891Z,12.90
2023-01-07T11:56:49.704Z,13.10
2023-01-07T11:59:26.569Z,13.55
2023-01-07T12:01:55.981Z,14.35
2023-01-07T12:04:36.445Z,13.27
2023-01-07T12:07:15.711Z,12.15
2023-01-07T12:09:45.533Z,12.77
2023-01-07T12:12:37.304Z,12.32
2023-01-07T12:15:24.067Z,13.45
2023-01-07T12:18:03.401Z,13.15
2023-01-07T12:20:38.391Z,13.02
2023-01-07T12:23:20.275Z,12.93
2023-01-07T12:25:52.866Z,12.73
2023-01-07T12:28:50.519Z,12.68
2023-01-07T12:33:50.069Z,15.35
2023-01-07T12:36:49.675Z,15.52
2023-01-07T12:39:33.051Z,29.98
2023-01-07T12:42:25.547Z,14.02
2023-01-07T12:45:01.282Z,12.90
2023-01-07T12:47:36.665Z,13.03
2023-01-07T12:50:18.571Z,12.80
2023-01-07T12:52:50.837Z,13.23
2023-01-07T12:55:22.832Z,13.00
2023-01-07T12:58:32.999Z,12.82
2023-01-07T13:01:06.095Z,13.55
2023-01-07T13:03:47.385Z,12.73
2023-01-07T13:06:35.198Z,11.60
2023-01-07T13:09:09.277Z,13.57
2023-01-07T13:12:41.638Z,14.25
2023-01-07T13:15:26.861Z,13.88
2023-01-07T13:17:59.321Z,14.88
2023-01-07T13:20:39.431Z,13.75
2023-01-07T13:23:18.945Z,13.38
2023-01-07T13:26:21.292Z,13.52
2023-01-07T13:29:04.493Z,12.75
2023-01-07T13:31:45.670Z,13.85
2023-01-07T13:34:24.291Z,13.82
2023-01-07T13:37:01.071Z,16.35
2023-01-07T13:39:52.192Z,17.52
2023-01-07T13:42:33.994Z,18.27
2023-01-07T13:45:24.307Z,16.80
2023-01-07T13:47:54.780Z,18.40
2023-01-07T13:50:44.400Z,19.15
2023-01-07T13:53:17.316Z,20.20
2023-01-07T13:55:46.405Z,22.30
2023-01-07T13:58:31.418Z,21.95
2023-01-07T14:01:16.161Z,26.33
2023-01-07T14:03:54.218Z,22.75
2023-01-07T14:06:20.949Z,22.63
2023-01-07T14:09:13.813Z,22.15
2023-01-07T14:12:21.188Z,27.95
2023-01-07T14:15:20.069Z,13.57
2023-01-07T14:17:55.987Z,12.77
2023-01-07T14:20:52.800Z,12.00
2023-01-07T14:23:32.723Z,11.93
2023-01-07T14:26:28.738Z,10.90
2023-01-07T14:29:07.859Z,21.92
2023-01-07T14:31:35.066Z,27.90
2023-01-07T14:34:05.571Z,7.43
2023-01-07T14:37:08.635Z,6.97
2023-01-07T14:39:37.077Z,8.05
2023-01-07T14:42:42.094Z,9.88
2023-01-07T14:45:36.690Z,6.93
2023-01-07T14:48:34.079Z,7.13
2023-01-07T14:51:28.498Z,6.28
2023-01-07T14:54:24.688Z,7.00
2023-01-07T14:57:22.838Z,6.70
2023-01-07T15:00:02.115Z,8.00
2023-01-07T15:02:55.330Z,8.02
2023-01-07T15:05:43.208Z,8.15
2023-01-07T15:08:32.102Z,9.07
2023-01-07T15:11:19.820Z,8.88
2023-01-07T15:14:16.419Z,9.13
2023-01-07T15:16:47.148Z,9.43
2023-01-07T15:19:14.097Z,12.68
2023-01-07T15:22:22.677Z,11.63
2023-01-07T15:25:12.948Z,9.75
2023-01-07T15:28:05.606Z,14.63
2023-01-07T15:30:57.176Z,14.45
2023-01-07T15:33:45.580Z,14.93
2023-01-07T15:36:15.865Z,12.88
2023-01-07T15:38:50.331Z,13.73
2023-01-07T15:41:37.639Z,15.68
2023-01-07T15:44:07.721Z,16.02
2023-01-07T15:46:40.548Z,19.13
2023-01-07T15:49:10.441Z,19.40
2023-01-07T15:51:40.257Z,22.50
2023-01-07T15:54:32.037Z,19.02
2023-01-07T15:57:07.901Z,18.90
2023-01-07T15:59:39.129Z,20.55
2023-01-07T16:02:24.603Z,18.63
2023-01-07T16:04:57.659Z,20.17
2023-01-07T16:07:29.017Z,20.83
2023-01-07T16:09:57.430Z,26.70
2023-01-07T16:12:34.325Z,23.50
2023-01-07T16:15:04.685Z,22.52
2023-01-07T16:17:31.976Z,23.38
2023-01-07T16:20:19.797Z,20.67
2023-01-07T16:22:46.748Z,22.10
2023-01-07T16:25:22.260Z,22.90
2023-01-07T16:27:50.990Z,21.23
2023-01-07T16:30:18.552Z,21.30
2023-01-07T16:32:46.158Z,22.10
2023-01-07T16:35:38.067Z,27.00
2023-01-07T16:38:05.769Z,27.52
2023-01-07T16:40:37.782Z,28.90
2023-01-07T16:43:25.444Z,28.15
2023-01-07T16:46:38.816Z,32.00
2023-01-07T16:49:11.698Z,33.05
2023-01-07T16:51:45.357Z,34.78
2023-01-07T16:54:40.322Z,36.35
2023-01-07T16:57:30.196Z,39.67
2023-01-07T16:59:58.909Z,38.78
2023-01-07T17:02:38.186Z,40.75
2023-01-07T17:05:18.933Z,37.67
2023-01-07T17:07:57.518Z,36.15
2023-01-07T17:10:31.448Z,36.20
2023-01-07T17:13:04.746Z,40.92
2023-01-07T17:15:31.586Z,43.50
2023-01-07T17:18:13.294Z,50.50
2023-01-07T17:20:48.939Z,55.88
2023-01-07T17:23:27.764Z,64.90
2023-01-07T17:26:12.663Z,69.72
2023-01-07T17:28:49.180Z,76.82
2023-01-07T17:33:43.213Z,80.32
2023-01-07T17:36:18.636Z,90.00
2023-01-07T17:38:45.543Z,89.03
2023-01-07T17:41:37.141Z,91.38
2023-01-07T17:44:04.961Z,89.70
2023-01-07T17:46:31.995Z,92.55
2023-01-07T17:49:01.073Z,91.93
2023-01-07T17:51:28.503Z,95.53
2023-01-07T17:53:59.273Z,91.03
2023-01-07T17:56:26.323Z,96.45
2023-01-07T17:58:55.815Z,94.15
2023-01-07T18:01:24.011Z,84.05
2023-01-07T18:03:52.062Z,88.25
2023-01-07T18:06:25.570Z,86.43
2023-01-07T18:08:53.101Z,91.30
2023-01-07T18:11:42.196Z,90.75
2023-01-07T18:14:13.218Z,92.15
2023-01-07T18:16:40.739Z,89.18
2023-01-07T18:19:08.593Z,95.72
2023-01-07T18:21:35.419Z,94.22
2023-01-07T18:24:02.303Z,96.30
2023-01-07T18:26:29.157Z,103.10
2023-01-07T18:28:55.987Z,101.63
2023-01-07T18:31:22.837Z,108.50
2023-01-07T18:33:50.120Z,116.78
2023-01-07T18:36:16.963Z,107.00
2023-01-07T18:38:44.389Z,117.10
2023-01-07T18:41:11.322Z,107.25
2023-01-07T18:43:38.252Z,114.55
2023-01-07T18:46:08.604Z,106.97
2023-01-07T18:48:37.256Z,103.20
2023-01-07T18:51:10.431Z,107.68
2023-01-07T18:53:37.757Z,98.80
2023-01-07T18:56:08.611Z,104.30
2023-01-07T18:58:35.398Z,108.30
2023-01-07T19:01:04.300Z,103.35
2023-01-07T19:03:31.498Z,89.85
2023-01-07T19:06:00.087Z,91.20
2023-01-07T19:08:27.702Z,94.22
2023-01-07T19:10:54.655Z,90.15
2023-01-07T19:13:22.401Z,93.95
2023-01-07T19:15:49.197Z,90.03
2023-01-07T19:18:16.049Z,90.10
2023-01-07T19:20:42.966Z,87.38
2023-01-07T19:23:09.813Z,90.57
2023-01-07T19:25:36.819Z,92.05
2023-01-07T19:28:22.459Z,89.07
2023-01-07T19:30:49.325Z,85.75
2023-01-07T19:33:16.145Z,87.57
2023-01-07T19:35:42.984Z,94.10
2023-01-07T19:38:09.995Z,86.72
2023-01-07T19:40:36.972Z,82.20
2023-01-07T19:43:03.731Z,88.50
2023-01-07T19:45:30.646Z,82.43
2023-01-07T19:47:57.788Z,76.25
2023-01-07T19:50:24.596Z,76.68
2023-01-07T19:52:51.524Z,77.60
2023-01-07T19:55:18.399Z,80.28
2023-01-07T19:57:45.196Z,80.53
2023-01-07T20:00:12.437Z,73.68
2023-01-07T20:02:39.296Z,81.60
2023-01-07T20:05:06.538Z,86.30
2023-01-07T20:07:35.117Z,77.90
2023-01-07T20:10:02.061Z,76.68
2023-01-07T20:12:28.806Z,75.03
2023-01-07T20:14:55.693Z,68.38
2023-01-07T20:17:22.604Z,68.90
2023-01-07T20:19:49.395Z,71.15
2023-01-07T20:22:16.343Z,70.43
2023-01-07T20:24:43.413Z,70.22
2023-01-07T20:27:10.277Z,74.78
2023-01-07T20:29:39.019Z,74.90
2023-01-07T20:32:08.318Z,74.78
2023-01-07T20:34:35.535Z,72.45
2023-01-07T20:37:04.564Z,67.45
2023-01-07T20:39:31.476Z,67.97
2023-01-07T20:41:58.326Z,65.45
2023-01-07T20:44:25.138Z,63.20
2023-01-07T20:46:52.089Z,63.10
2023-01-07T20:49:19.053Z,63.88
2023-01-07T20:51:46.380Z,70.07
2023-01-07T20:54:13.767Z,71.13
2023-01-07T20:56:59.385Z,71.72
2023-01-07T20:59:26.373Z,70.00
2023-01-07T21:01:53.478Z,72.63
2023-01-07T21:04:20.524Z,71.28
2023-01-07T21:06:47.378Z,64.82
2023-01-07T21:09:15.370Z,65.57
2023-01-07T21:11:43.383Z,60.75
2023-01-07T21:14:10.193Z,59.22
2023-01-07T21:16:37.495Z,51.85
2023-01-07T21:19:04.386Z,51.42
2023-01-07T21:21:31.379Z,51.55
2023-01-07T21:23:58.976Z,53.58
2023-01-07T21:26:26.164Z,50.53
2023-01-07T21:28:56.118Z,47.83
2023-01-07T21:31:42.246Z,47.85
2023-01-07T21:34:10.556Z,48.30
2023-01-07T21:36:37.536Z,46.90
2023-01-07T21:39:04.517Z,49.88
2023-01-07T21:41:31.399Z,50.95
2023-01-07T21:43:58.283Z,49.40
2023-01-07T21:46:25.236Z,52.50
2023-01-07T21:48:52.096Z,61.72
2023-01-07T21:51:24.606Z,80.97
2023-01-07T21:53:52.551Z,92.57
2023-01-07T21:56:19.885Z,89.80
2023-01-07T21:58:46.883Z,93.45
2023-01-07T22:01:14.321Z,92.70
2023-01-07T22:03:45.246Z,94.07
2023-01-07T22:06:25.775Z,87.05
2023-01-07T22:09:14.634Z,81.38
2023-01-07T22:11:42.150Z,77.95
2023-01-07T22:14:16.989Z,64.88
2023-01-07T22:16:45.492Z,66.45
2023-01-07T22:19:13.696Z,66.32
2023-01-07T22:21:40.653Z,62.28
2023-01-07T22:24:26.235Z,62.60
2023-01-07T22:26:53.867Z,62.17
2023-01-07T22:29:39.382Z,67.45
2023-01-07T22:32:06.195Z,66.82
2023-01-07T22:34:33.099Z,64.35
2023-01-07T22:37:05.836Z,67.95
2023-01-07T22:39:43.545Z,64.35
2023-01-07T22:42:33.405Z,67.35
2023-01-07T22:45:06.904Z,64.38
2023-01-07T22:47:40.935Z,65.05
2023-01-07T22:50:09.498Z,62.45
2023-01-07T22:52:36.838Z,60.60
2023-01-07T22:55:22.193Z,56.10
2023-01-07T22:57:49.311Z,59.10
2023-01-07T23:00:38.095Z,59.00
2023-01-07T23:03:05.197Z,59.33
2023-01-07T23:05:32.168Z,56.42
2023-01-07T23:07:59.042Z,57.33
2023-01-07T23:10:25.903Z,57.97
2023-01-07T23:12:52.745Z,60.42
2023-01-07T23:15:19.666Z,58.95
2023-01-07T23:17:49.541Z,58.53
2023-01-07T23:20:16.423Z,57.33
2023-01-07T23:22:43.383Z,46.92
2023-01-07T23:25:10.170Z,43.58
2023-01-07T23:27:39.274Z,41.78
2023-01-07T23:30:06.930Z,39.33
2023-01-07T23:32:33.843Z,34.38
2023-01-07T23:35:00.927Z,32.78
2023-01-07T23:37:27.883Z,31.35
2023-01-07T23:39:54.691Z,32.50
2023-01-07T23:42:21.661Z,37.83
2023-01-07T23:44:48.566Z,31.42
2023-01-07T23:47:15.746Z,29.38
2023-01-07T23:49:42.517Z,26.77
2023-01-07T23:52:09.408Z,29.17
2023-01-07T23:54:36.219Z,28.80
2023-01-07T23:57:03.032Z,26.92
2023-01-07T23:59:29.867Z,25.17
